Time;durP1;ratioP1;P1;durP2;ratioP2;P2;SDS_P1;SDS_P2;PMS_P1;PMS_P2;Temp;Humidity;BMP_temperature;BMP_pressure;BME280_temperature;BME280_humidity;BME280_pressure;Samples;Min_cycle;Max_cycle;Signal;HPM_P1;HPM_P2
2021/03/08 00:00:29;;;;;;;29.83;17.58;;;;;;;-1.73;80.55;99186.53;4937094;29;20039;-71
2021/03/08 00:02:56;;;;;;;31.17;17.73;;;;;;;-1.87;80.67;99198.72;4936824;29;20170;-71
2021/03/08 00:05:21;;;;;;;33.45;17.08;;;;;;;-1.84;80.73;99201.34;4935656;29;20396;-71
2021/03/08 00:07:47;;;;;;;32.95;17.75;;;;;;;-1.85;81.36;99203.03;4936790;29;20058;-71
2021/03/08 00:10:18;;;;;;;30.60;18.00;;;;;;;-2.04;81.69;99198.06;4936792;29;20470;-71
2021/03/08 00:12:45;;;;;;;35.85;19.00;;;;;;;-2.09;82.23;99197.88;4936592;29;20031;-71
2021/03/08 00:15:12;;;;;;;35.08;18.17;;;;;;;-1.91;82.02;99202.81;4936399;29;20028;-69
2021/03/08 00:17:38;;;;;;;37.22;18.58;;;;;;;-2.04;81.66;99200.59;4936630;29;20366;-69
2021/03/08 00:20:06;;;;;;;32.95;17.63;;;;;;;-2.21;81.84;99199.09;4936558;29;20106;-70
2021/03/08 00:22:32;;;;;;;33.75;17.52;;;;;;;-2.23;82.14;99204.09;4936380;29;20118;-70
2021/03/08 00:24:57;;;;;;;36.17;18.55;;;;;;;-1.98;83.46;99190.69;4936523;29;20489;-70
2021/03/08 00:27:22;;;;;;;31.95;17.73;;;;;;;-2.14;81.81;99198.50;4936667;29;20050;-69
2021/03/08 00:29:48;;;;;;;31.70;19.13;;;;;;;-2.03;81.57;99202.34;4936591;29;20050;-69
2021/03/08 00:32:13;;;;;;;30.35;19.30;;;;;;;-2.02;80.98;99201.53;4936196;29;20400;-69
2021/03/08 00:34:38;;;;;;;28.80;17.63;;;;;;;-1.96;80.87;99194.16;4936420;29;20113;-69
2021/03/08 00:37:05;;;;;;;35.05;19.15;;;;;;;-1.96;81.20;99194.16;4936345;29;20039;-70
2021/03/08 00:39:30;;;;;;;34.55;18.42;;;;;;;-2.10;81.79;99195.28;4936358;29;20031;-70
2021/03/08 00:41:56;;;;;;;30.98;18.00;;;;;;;-2.01;81.60;99195.66;4936025;29;20031;-70
2021/03/08 00:44:21;;;;;;;31.40;17.63;;;;;;;-1.91;82.58;99195.19;4936167;29;20051;-70
2021/03/08 00:46:46;;;;;;;34.55;18.70;;;;;;;-2.10;81.18;99190.22;4935992;29;20063;-70
2021/03/08 00:49:12;;;;;;;33.38;17.40;;;;;;;-2.26;82.05;99192.97;4936149;29;20473;-70
2021/03/08 00:51:37;;;;;;;37.60;17.15;;;;;;;-2.36;82.01;99192.59;4935233;29;20393;-70
2021/03/08 00:54:02;;;;;;;33.53;18.55;;;;;;;-2.35;82.24;99193.47;4935924;29;20040;-70
2021/03/08 00:56:28;;;;;;;33.88;17.75;;;;;;;-2.45;83.28;99192.22;4935947;29;20074;-70
2021/03/08 00:58:53;;;;;;;34.33;18.92;;;;;;;-2.55;82.94;99190.13;4935911;29;20023;-70
2021/03/08 05:17:37;;;;;;;35.17;19.42;;;;;;;-4.50;85.65;99254.00;4931727;23;20048;-72
2021/03/08 05:20:08;;;;;;;39.00;19.02;;;;;;;-4.71;86.58;99268.13;4916378;29;20048;-73
2021/03/08 05:22:35;;;;;;;40.15;20.98;;;;;;;-4.67;85.75;99264.97;4916448;29;20137;-73
2021/03/08 05:25:02;;;;;;;35.17;19.23;;;;;;;-4.71;85.85;99263.06;4916454;29;20024;-74
2021/03/08 05:27:28;;;;;;;34.67;18.83;;;;;;;-4.75;86.33;99263.69;4916436;29;20024;-73
2021/03/08 05:29:54;;;;;;;35.42;19.27;;;;;;;-4.60;86.10;99256.88;4916798;29;20039;-73
2021/03/08 05:32:31;;;;;;;33.90;18.33;;;;;;;-4.25;86.65;99260.28;4916182;29;20020;-71
2021/03/08 05:34:58;;;;;;;41.13;21.52;;;;;;;-4.05;87.71;99254.50;4916371;29;20065;-72
2021/03/08 05:37:24;;;;;;;38.05;20.08;;;;;;;-3.77;83.86;99255.75;4916133;29;20028;-71
2021/03/08 05:39:51;;;;;;;39.25;18.80;;;;;;;-4.17;82.85;99264.00;4887974;29;20505;-71
2021/03/08 05:42:18;;;;;;;38.65;19.48;;;;;;;-4.20;83.96;99268.94;4916131;29;20111;-72
2021/03/08 05:44:59;;;;;;;36.60;18.98;;;;;;;-4.13;84.95;99265.91;4916008;29;20028;-71
2021/03/08 05:47:55;;;;;;;35.53;20.08;;;;;;;-4.09;86.09;99277.03;4916106;29;20040;-72
2021/03/08 05:50:26;;;;;;;34.67;19.10;;;;;;;-4.10;86.21;99266.06;4916167;29;20367;-72
2021/03/08 05:53:13;;;;;;;35.83;19.00;;;;;;;-3.93;86.00;99274.44;4915954;29;20028;-71
2021/03/08 05:56:06;;;;;;;39.53;19.83;;;;;;;-3.81;86.72;99276.69;4916027;29;20091;-70
2021/03/08 05:59:14;;;;;;;43.58;21.25;;;;;;;-3.96;85.89;99275.19;4916129;29;20091;-71
2021/03/08 06:01:57;;;;;;;36.35;18.88;;;;;;;-4.17;84.96;99274.13;4915821;29;20075;-71
2021/03/08 06:04:26;;;;;;;39.80;20.02;;;;;;;-4.17;84.35;99269.94;4915941;29;20108;-72
2021/03/08 06:07:01;;;;;;;45.45;21.65;;;;;;;-4.13;84.78;99274.34;4915969;29;20047;-72
2021/03/08 06:09:27;;;;;;;38.08;21.05;;;;;;;-4.29;84.36;99278.63;4915705;29;20103;-72
2021/03/08 06:12:05;;;;;;;39.03;19.83;;;;;;;-4.24;84.53;99277.19;4915589;29;20083;-72
2021/03/08 06:14:45;;;;;;;37.70;20.10;;;;;;;-3.86;84.43;99275.63;4914445;29;20075;-72
2021/03/08 06:17:15;;;;;;;36.58;21.42;;;;;;;-3.15;82.69;99270.41;4915451;29;20064;-72
2021/03/08 06:19:43;;;;;;;45.80;22.08;;;;;;;-2.53;81.26;99264.59;4915830;29;20059;-72
2021/03/08 06:22:10;;;;;;;36.10;19.00;;;;;;;-2.19;78.39;99271.06;4914410;29;20040;-72
2021/03/08 06:24:39;;;;;;;32.65;18.13;;;;;;;-1.88;75.61;99271.50;4915708;29;20032;-72
2021/03/08 06:27:06;;;;;;;;;;;;;;;-2.04;75.33;99276.75;4915929;29;20071;-72
2021/03/08 06:29:33;;;;;;;38.83;18.63;;;;;;;-2.37;75.78;99282.22;4930571;29;19911;-72
2021/03/08 06:31:59;;;;;;;32.33;18.60;;;;;;;-2.69;77.24;99292.69;4915537;29;20043;-72
2021/03/08 06:34:24;;;;;;;38.45;19.30;;;;;;;-2.97;78.21;99296.56;4915599;29;20043;-72
2021/03/08 06:36:51;;;;;;;38.17;20.52;;;;;;;-2.86;77.94;99299.53;4915495;29;20498;-72
2021/03/08 06:39:16;;;;;;;37.47;19.23;;;;;;;-2.53;76.95;99289.13;4915580;29;20548;-72
2021/03/08 06:41:41;;;;;;;31.35;18.48;;;;;;;-2.60;76.43;99293.94;4915426;29;20118;-72
2021/03/08 06:44:08;;;;;;;31.30;17.15;;;;;;;-2.79;77.28;99303.22;4915510;29;20020;-72
2021/03/08 06:46:33;;;;;;;33.15;19.08;;;;;;;-3.16;79.12;99304.13;4915302;29;20119;-72
2021/03/08 06:49:01;;;;;;;31.38;19.10;;;;;;;-3.50;79.96;99297.56;4916621;29;20056;-72
2021/03/08 06:51:26;;;;;;;34.10;19.13;;;;;;;-3.47;81.03;99304.44;4919039;29;20390;-72
2021/03/08 06:53:51;;;;;;;36.13;20.02;;;;;;;-3.10;81.20;99309.47;4918983;29;20024;-72
2021/03/08 06:56:18;;;;;;;34.45;19.15;;;;;;;-2.90;80.03;99302.75;4913458;29;20406;-72
2021/03/08 06:58:45;;;;;;;36.30;19.98;;;;;;;-2.77;79.93;99302.47;4918367;29;20024;-72
2021/03/08 07:01:12;;;;;;;42.92;20.65;;;;;;;-2.59;79.51;99299.88;4918612;29;20028;-72
2021/03/08 07:03:37;;;;;;;40.13;19.80;;;;;;;-2.53;79.68;99312.81;4919076;29;20620;-72
2021/03/08 07:06:17;;;;;;;41.90;22.08;;;;;;;-2.40;78.94;99301.50;4918185;29;20071;-72
2021/03/08 07:08:46;;;;;;;41.85;21.98;;;;;;;-2.34;79.82;99301.75;4918881;29;20028;-72
2021/03/08 07:11:19;;;;;;;42.13;22.65;;;;;;;-2.13;78.40;99301.75;4916674;29;20389;-72
2021/03/08 07:13:45;;;;;;;37.58;21.15;;;;;;;-2.28;78.38;99306.22;4918438;29;20115;-72
2021/03/08 07:16:11;;;;;;;34.88;20.88;;;;;;;-2.37;78.95;99305.06;4918204;29;20036;-72
2021/03/08 07:18:37;;;;;;;35.20;19.02;;;;;;;-2.17;78.51;99305.00;4917952;29;20035;-72
2021/03/08 07:21:12;;;;;;;32.33;19.05;;;;;;;-1.77;79.29;99316.75;4918294;29;20123;-72
2021/03/08 07:23:41;;;;;;;38.15;19.10;;;;;;;-1.54;77.71;99320.19;4918350;29;20027;-72
2021/03/08 07:26:08;;;;;;;36.90;20.45;;;;;;;-1.46;76.67;99318.78;4918296;29;20032;-72
2021/03/08 07:28:34;;;;;;;36.17;21.67;;;;;;;-1.51;76.57;99316.09;4917362;29;20447;-72
2021/03/08 07:30:59;;;;;;;40.00;23.13;;;;;;;-1.77;78.00;99326.91;4917976;29;20060;-72
2021/03/08 07:33:25;;;;;;;38.60;20.20;;;;;;;-1.84;79.60;99330.84;4913720;29;20533;-72
2021/03/08 07:35:53;;;;;;;50.42;23.60;;;;;;;-1.42;76.77;99325.75;4910168;29;20028;-72
2021/03/08 07:38:33;;;;;;;54.88;23.73;;;;;;;-1.38;76.79;99327.59;4918403;29;20430;-72
2021/03/08 07:41:19;;;;;;;46.47;23.08;;;;;;;-1.42;77.32;99336.75;4902694;29;20031;-72
2021/03/08 07:43:47;;;;;;;49.10;21.80;;;;;;;-1.12;76.63;99341.28;4918086;29;20410;-72
2021/03/08 07:46:45;;;;;;;42.47;20.20;;;;;;;-1.04;76.21;99338.22;4917751;29;20039;-72
2021/03/08 07:49:10;;;;;;;36.85;20.45;;;;;;;-1.06;76.15;99338.97;4911738;29;20044;-72
2021/03/08 07:51:35;;;;;;;33.80;19.38;;;;;;;-0.68;76.08;99329.31;4915206;29;20373;-72
2021/03/08 07:54:01;;;;;;;35.28;21.35;;;;;;;-0.51;75.06;99333.31;4917532;29;20019;-72
2021/03/08 07:56:27;;;;;;;31.48;19.25;;;;;;;-0.58;75.28;99336.44;4916636;29;20038;-72
2021/03/08 07:58:53;;;;;;;37.22;21.10;;;;;;;-0.11;73.92;99334.66;4917372;29;20051;-72
2021/03/08 08:01:19;;;;;;;36.28;21.27;;;;;;;0.11;73.60;99337.13;4916417;29;20040;-72
2021/03/08 08:03:44;;;;;;;36.42;20.13;;;;;;;0.16;73.65;99338.13;4916590;29;20032;-72
2021/03/08 08:06:10;;;;;;;43.53;21.50;;;;;;;-0.15;74.02;99332.81;4915552;29;20426;-72
2021/03/08 08:08:39;;;;;;;38.95;21.38;;;;;;;-0.18;73.87;99335.28;4917074;29;20028;-72
2021/03/08 08:11:06;;;;;;;40.27;21.70;;;;;;;-0.03;73.29;99338.34;4915975;29;20024;-72
2021/03/08 08:13:57;;;;;;;39.83;20.77;;;;;;;0.57;73.05;99333.44;4916711;29;20307;-72
2021/03/08 08:16:25;;;;;;;33.20;19.88;;;;;;;0.73;70.92;99340.78;4915046;29;20036;-72
2021/03/08 08:18:57;;;;;;;35.55;20.50;;;;;;;1.12;69.58;99324.91;4917382;29;20032;-72
2021/03/08 08:21:23;;;;;;;30.17;18.70;;;;;;;2.44;64.52;99324.03;4917287;29;20063;-72
2021/03/08 08:24:00;;;;;;;32.55;18.50;;;;;;;4.95;56.36;99313.22;4917177;29;20028;-72
2021/03/08 08:26:26;;;;;;;31.77;17.95;;;;;;;7.30;50.00;99296.34;4917074;29;20291;-72
2021/03/08 08:28:53;;;;;;;30.33;17.35;;;;;;;8.58;45.61;99292.19;4916924;29;20020;-73
2021/03/08 08:31:19;;;;;;;28.77;18.33;;;;;;;7.40;48.36;99295.50;4917133;29;20119;-73
2021/03/08 08:33:45;;;;;;;28.73;16.75;;;;;;;10.16;40.06;99294.88;4915730;29;20108;-74
2021/03/08 08:36:10;;;;;;;25.58;16.15;;;;;;;6.94;48.67;99308.19;4931699;29;20028;-73
2021/03/08 08:38:37;;;;;;;23.90;15.65;;;;;;;11.55;38.31;99286.44;4916725;29;20020;-73
2021/03/08 08:41:29;;;;;;;23.45;15.48;;;;;;;11.75;38.04;99290.53;4916732;29;20036;-73
2021/03/08 08:44:09;;;;;;;26.83;17.45;;;;;;;13.20;33.90;99284.53;4916994;29;20050;-73
2021/03/08 08:46:37;;;;;;;26.02;16.55;;;;;;;12.82;34.46;99296.56;4909172;29;20477;-73
2021/03/08 08:49:18;;;;;;;24.42;17.75;;;;;;;11.88;35.80;99301.59;4916927;29;20050;-73
2021/03/08 08:51:49;;;;;;;22.58;16.83;;;;;;;12.31;35.12;99294.84;4916588;29;20103;-73
2021/03/08 08:54:27;;;;;;;25.02;16.83;;;;;;;11.73;37.05;99294.88;4916664;29;20359;-73
2021/03/08 08:57:07;;;;;;;22.38;17.13;;;;;;;12.61;35.54;99293.44;4916590;29;20046;-73
2021/03/08 08:59:35;;;;;;;26.13;17.75;;;;;;;14.93;32.10;99289.13;4916622;29;20032;-73
2021/03/08 09:02:21;;;;;;;24.17;16.23;;;;;;;15.63;29.59;99283.66;4916697;29;20028;-73
2021/03/08 09:04:46;;;;;;;26.55;15.32;;;;;;;14.69;31.04;99292.41;4916636;29;20107;-73
2021/03/08 09:07:20;;;;;;;24.17;15.70;;;;;;;14.14;31.57;99297.25;4916888;29;20115;-73
2021/03/08 09:09:46;;;;;;;24.02;17.33;;;;;;;14.83;31.43;99292.91;4916551;29;20028;-73
2021/03/08 09:12:27;;;;;;;20.98;16.17;;;;;;;14.57;31.00;99289.22;4915909;29;20477;-73
2021/03/08 09:14:55;;;;;;;19.23;14.57;;;;;;;14.54;31.47;99283.22;4915938;29;20389;-73
2021/03/08 09:17:31;;;;;;;22.52;15.18;;;;;;;14.45;30.54;99299.94;4915930;29;20115;-73
2021/03/08 09:19:57;;;;;;;19.58;13.93;;;;;;;14.20;31.75;99284.03;4916524;29;20035;-73
2021/03/08 09:22:22;;;;;;;20.60;14.88;;;;;;;15.89;28.89;99286.34;4904731;29;20028;-73
2021/03/08 09:24:49;;;;;;;17.98;14.38;;;;;;;15.49;30.25;99286.66;4902389;29;20034;-73
2021/03/08 09:27:39;;;;;;;22.00;13.70;;;;;;;16.30;28.73;99296.38;4909973;29;20059;-73
2021/03/08 09:30:06;;;;;;;18.42;13.60;;;;;;;13.97;31.85;99297.63;4901144;29;20043;-73
2021/03/08 09:32:32;;;;;;;18.73;13.25;;;;;;;15.10;30.35;99296.50;4914286;29;20393;-73
2021/03/08 09:35:03;;;;;;;16.70;12.73;;;;;;;16.36;28.10;99290.94;4901538;29;20340;-73
2021/03/08 09:37:30;;;;;;;17.70;13.38;;;;;;;16.28;28.23;99296.41;4902127;29;20028;-73
2021/03/08 09:39:57;;;;;;;17.98;12.48;;;;;;;16.48;27.77;99302.75;4903131;29;20035;-73
2021/03/08 09:42:22;;;;;;;19.08;13.45;;;;;;;16.34;28.09;99301.47;4902204;29;20036;-73
2021/03/08 09:44:48;;;;;;;17.60;13.13;;;;;;;12.87;31.52;99310.34;4902391;29;20082;-73
2021/03/08 09:47:14;;;;;;;16.42;12.57;;;;;;;14.84;30.81;99295.47;4901946;29;20035;-73
2021/03/08 09:49:50;;;;;;;16.13;13.15;;;;;;;15.59;28.65;99295.09;4917115;29;20035;-73
2021/03/08 09:52:31;;;;;;;14.10;11.40;;;;;;;18.40;25.22;99286.84;4900630;29;20032;-73
2021/03/08 09:54:57;;;;;;;16.58;13.23;;;;;;;18.55;24.74;99282.72;4901745;29;20037;-73
2021/03/08 09:57:49;;;;;;;15.98;12.00;;;;;;;19.51;23.90;99278.47;4900142;29;20054;-73
2021/03/08 10:00:37;;;;;;;18.90;12.20;;;;;;;18.73;24.55;99280.19;4897721;29;20036;-73
2021/03/08 10:03:05;;;;;;;16.98;13.20;;;;;;;17.22;26.76;99283.59;4885074;29;20020;-73
2021/03/08 10:05:39;;;;;;;14.95;12.35;;;;;;;18.55;24.91;99270.44;4886273;29;20115;-73
2021/03/08 10:08:05;;;;;;;16.48;12.43;;;;;;;16.96;26.44;99274.03;4870867;29;20071;-73
2021/03/08 10:10:31;;;;;;;15.20;12.07;;;;;;;15.53;28.48;99280.47;4874978;29;20024;-73
2021/03/08 10:13:00;;;;;;;15.10;11.23;;;;;;;17.55;26.49;99265.75;4872935;29;20059;-73
2021/03/08 10:15:26;;;;;;;;;;;;;;;18.82;24.44;99268.44;4862702;29;20118;-73
2021/03/08 10:18:00;;;;;;;12.45;10.15;;;;;;;17.47;26.38;99267.81;4865213;29;20277;-73
2021/03/08 10:20:32;;;;;;;17.60;11.10;;;;;;;17.42;26.01;99269.75;4862415;29;20107;-73
2021/03/08 10:22:57;;;;;;;13.35;11.60;;;;;;;16.81;26.88;99272.84;4851368;29;20417;-73
2021/03/08 10:25:26;;;;;;;15.52;11.18;;;;;;;16.67;26.81;99269.81;4853351;29;20067;-74
2021/03/08 10:27:53;;;;;;;12.70;10.40;;;;;;;17.40;27.10;99261.06;4842310;29;20465;-73
2021/03/08 10:30:19;;;;;;;12.88;11.02;;;;;;;17.34;26.89;99262.16;4837462;29;20039;-73
2021/03/08 10:32:45;;;;;;;12.50;10.13;;;;;;;18.19;25.25;99263.22;4836565;29;20046;-73
2021/03/08 10:35:12;;;;;;;11.95;9.18;;;;;;;16.87;26.67;99274.38;4856246;29;20036;-74
2021/03/08 10:37:39;;;;;;;11.43;9.63;;;;;;;17.02;26.07;99260.75;4833849;29;20052;-74
2021/03/08 10:40:06;;;;;;;10.27;9.20;;;;;;;16.53;26.68;99272.03;4848031;29;20100;-73
2021/03/08 10:42:33;;;;;;;14.07;9.70;;;;;;;17.25;25.95;99257.25;4849570;29;20035;-73
2021/03/08 10:45:00;;;;;;;11.65;9.70;;;;;;;17.71;25.01;99253.75;4860984;29;20154;-73
2021/03/08 10:47:25;;;;;;;11.23;9.15;;;;;;;17.66;24.92;99255.69;4863099;29;20071;-73
2021/03/08 10:49:54;;;;;;;9.82;8.80;;;;;;;14.82;29.25;99258.13;4863645;29;20119;-73
2021/03/08 10:52:20;;;;;;;11.73;8.80;;;;;;;11.71;33.26;99276.72;4874199;29;20035;-73
2021/03/08 10:54:47;;;;;;;10.25;9.15;;;;;;;15.14;29.46;99254.63;4875244;29;20111;-73
2021/03/08 10:57:13;;;;;;;9.45;8.32;;;;;;;17.76;25.45;99240.50;4873363;29;20032;-73
2021/03/08 10:59:47;;;;;;;12.00;7.90;;;;;;;17.67;25.41;99239.06;4875753;29;20040;-73
2021/03/08 11:02:15;;;;;;;10.13;8.05;;;;;;;15.89;26.53;99247.13;4879706;29;20028;-73
2021/03/08 11:04:45;;;;;;;15.63;8.15;;;;;;;16.50;26.59;99246.88;4878381;29;20035;-73
2021/03/08 11:07:11;;;;;;;11.68;8.32;;;;;;;15.98;27.15;99248.59;4878246;29;20033;-73
2021/03/08 11:09:43;;;;;;;9.88;7.20;;;;;;;18.01;24.84;99234.25;4878397;29;20044;-73
2021/03/08 11:12:17;;;;;;;12.45;7.25;;;;;;;15.87;25.44;99258.56;4870883;29;20024;-74
2021/03/08 11:15:02;;;;;;;8.63;7.47;;;;;;;17.95;23.64;99248.47;4873960;29;20020;-74
2021/03/08 11:17:39;;;;;;;8.52;7.05;;;;;;;18.38;24.77;99239.69;4871529;29;20536;-74
2021/03/08 11:20:08;;;;;;;12.75;7.90;;;;;;;17.01;25.17;99251.16;4871718;29;20320;-73
2021/03/08 11:22:52;;;;;;;9.48;7.72;;;;;;;17.19;25.03;99242.63;4873223;29;20486;-73
2021/03/08 11:25:32;;;;;;;13.05;9.07;;;;;;;16.19;26.58;99260.94;4873961;29;20060;-73
2021/03/08 11:27:59;;;;;;;9.48;7.75;;;;;;;17.91;25.20;99241.66;4883073;29;20554;-73
2021/03/08 11:30:26;;;;;;;12.02;8.35;;;;;;;15.84;26.61;99249.03;4883516;29;20032;-75
2021/03/08 11:32:53;;;;;;;8.65;7.72;;;;;;;17.33;25.14;99236.88;4883813;29;20402;-74
2021/03/08 11:35:23;;;;;;;9.40;8.10;;;;;;;15.63;26.57;99237.50;4882225;29;20097;-75
2021/03/08 11:37:51;;;;;;;9.43;8.27;;;;;;;17.61;24.31;99233.22;4882274;29;20083;-74
2021/03/08 11:40:19;;;;;;;12.68;7.78;;;;;;;15.16;28.03;99244.97;4890645;29;20033;-75
2021/03/08 11:42:44;;;;;;;8.13;7.32;;;;;;;18.06;24.63;99235.78;4887897;29;20044;-75
2021/03/08 11:45:10;;;;;;;9.98;7.82;;;;;;;17.28;25.05;99240.59;4887115;29;20477;-74
2021/03/08 11:47:36;;;;;;;9.35;7.05;;;;;;;18.56;23.04;99231.94;4886451;29;20037;-75
2021/03/08 11:50:03;;;;;;;9.00;7.38;;;;;;;13.92;28.90;99247.38;4888894;29;20036;-74
2021/03/08 11:52:28;;;;;;;8.48;7.65;;;;;;;13.06;29.56;99241.47;4889619;29;20035;-74
2021/03/08 11:54:54;;;;;;;8.98;7.45;;;;;;;15.05;27.58;99233.16;4889770;29;20025;-74
2021/03/08 11:57:19;;;;;;;8.10;7.32;;;;;;;14.28;27.83;99229.13;4887285;29;20526;-74
2021/03/08 11:59:45;;;;;;;7.95;7.15;;;;;;;14.76;27.63;99221.78;4887659;29;20119;-74
2021/03/08 12:02:11;;;;;;;9.75;6.90;;;;;;;16.37;25.24;99222.03;4888793;29;20032;-74
2021/03/08 12:04:36;;;;;;;7.47;6.70;;;;;;;16.14;24.10;99213.19;4890059;29;20035;-74
2021/03/08 12:07:01;;;;;;;8.57;7.30;;;;;;;16.69;23.99;99206.06;4888041;29;20028;-74
2021/03/08 12:09:27;;;;;;;8.75;6.72;;;;;;;13.75;27.18;99218.28;4888262;29;20107;-75
2021/03/08 12:11:52;;;;;;;7.47;6.60;;;;;;;13.78;28.19;99212.97;4890231;29;20072;-75
2021/03/08 12:14:17;;;;;;;9.13;6.63;;;;;;;12.24;29.40;99219.66;4888863;29;20028;-75
2021/03/08 12:16:43;;;;;;;8.63;7.22;;;;;;;11.44;31.01;99214.81;4886959;29;20422;-74
2021/03/08 12:19:08;;;;;;;13.30;7.22;;;;;;;13.59;28.94;99203.03;4888209;29;20036;-74
2021/03/08 12:21:34;;;;;;;10.65;6.95;;;;;;;14.88;26.75;99191.88;4886029;29;20615;-74
2021/03/08 12:23:59;;;;;;;9.45;7.00;;;;;;;15.05;27.18;99181.81;4887331;29;20025;-75
2021/03/08 12:26:25;;;;;;;13.05;6.75;;;;;;;11.95;29.71;99197.63;4886476;29;20060;-74
2021/03/08 12:28:50;;;;;;;6.78;6.07;;;;;;;12.88;29.06;99186.38;4887598;29;20076;-74
2021/03/08 12:31:17;;;;;;;8.98;7.40;;;;;;;10.17;32.96;99199.03;4883799;29;20238;-74
2021/03/08 12:33:43;;;;;;;8.65;7.75;;;;;;;10.41;33.81;99195.38;4887528;29;20076;-74
2021/03/08 12:36:08;;;;;;;8.75;7.22;;;;;;;8.85;37.35;99193.94;4887731;29;20049;-74
2021/03/08 12:38:34;;;;;;;8.93;8.00;;;;;;;9.52;36.18;99188.38;4886177;29;20037;-74
2021/03/08 12:41:03;;;;;;;11.02;7.57;;;;;;;9.86;35.19;99176.88;4885595;29;20036;-74
2021/03/08 12:43:29;;;;;;;9.98;6.82;;;;;;;9.48;33.76;99185.81;4889007;29;20035;-74
2021/03/08 12:45:54;;;;;;;9.98;7.20;;;;;;;8.94;34.82;99182.69;4886582;29;20037;-74
2021/03/08 12:48:20;;;;;;;11.95;7.35;;;;;;;7.27;37.53;99190.66;4885704;29;20028;-74
2021/03/08 12:50:45;;;;;;;8.60;6.55;;;;;;;8.26;36.93;99192.34;4885951;29;20029;-74
2021/03/08 12:53:11;;;;;;;10.43;6.15;;;;;;;9.04;33.89;99175.72;4888431;29;20035;-74
2021/03/08 12:55:38;;;;;;;8.35;5.97;;;;;;;9.33;34.51;99176.44;4886268;29;20712;-74
2021/03/08 12:58:03;;;;;;;12.98;6.70;;;;;;;8.97;34.79;99172.34;4887622;29;20060;-75
2021/03/08 13:00:28;;;;;;;11.00;7.22;;;;;;;8.74;36.30;99167.25;4886889;29;20095;-75
2021/03/08 13:02:54;;;;;;;11.48;7.10;;;;;;;8.25;36.69;99168.25;4887350;29;20095;-75
2021/03/08 13:05:19;;;;;;;10.10;7.20;;;;;;;8.48;37.34;99160.50;4887398;29;20161;-74
2021/03/08 13:07:44;;;;;;;9.60;6.55;;;;;;;9.22;35.62;99157.53;4900458;29;20120;-74
2021/03/08 13:10:10;;;;;;;12.50;7.38;;;;;;;9.65;35.32;99152.06;4886508;29;20056;-74
2021/03/08 13:12:36;;;;;;;11.32;7.22;;;;;;;9.59;35.08;99152.13;4887496;29;20061;-74
2021/03/08 13:15:02;;;;;;;10.23;7.63;;;;;;;9.85;35.57;99150.16;4887132;29;20041;-74
2021/03/08 13:17:27;;;;;;;8.85;7.35;;;;;;;9.57;35.28;99148.66;4885849;29;20044;-75
2021/03/08 13:19:53;;;;;;;7.72;6.72;;;;;;;9.62;34.86;99147.78;4887523;29;20043;-74
2021/03/08 13:22:18;;;;;;;15.15;12.68;;;;;;;9.56;34.90;99145.22;4882832;29;20545;-74
2021/03/08 13:24:43;;;;;;;11.98;7.00;;;;;;;9.48;34.44;99147.88;4885281;29;20167;-74
2021/03/08 13:27:09;;;;;;;8.02;6.78;;;;;;;9.33;34.71;99140.25;4886212;29;20033;-74
2021/03/08 13:29:35;;;;;;;13.45;11.10;;;;;;;9.80;34.55;99141.56;4886421;29;20057;-75
2021/03/08 13:32:02;;;;;;;8.82;7.60;;;;;;;9.64;34.80;99135.69;4886700;29;20112;-74
2021/03/08 13:34:28;;;;;;;10.82;7.72;;;;;;;9.14;35.92;99133.47;4886912;29;20033;-74
2021/03/08 13:36:54;;;;;;;9.55;8.27;;;;;;;9.22;35.77;99131.69;4886748;29;20080;-74
2021/03/08 13:39:20;;;;;;;12.60;7.72;;;;;;;9.13;36.02;99129.16;4887311;29;20119;-75
2021/03/08 13:41:45;;;;;;;9.48;7.85;;;;;;;9.33;35.83;99129.00;4885419;29;20043;-74
2021/03/08 13:44:10;;;;;;;24.98;13.95;;;;;;;9.47;35.77;99128.03;4886197;29;20032;-74
2021/03/08 13:46:36;;;;;;;8.75;7.47;;;;;;;9.82;35.06;99124.31;4887067;29;20036;-74
2021/03/08 13:49:02;;;;;;;15.23;8.25;;;;;;;9.51;34.72;99124.56;4886899;29;20036;-74
2021/03/08 13:51:28;;;;;;;11.93;7.60;;;;;;;9.05;35.06;99123.19;4887006;29;20033;-74
2021/03/08 13:53:53;;;;;;;13.23;7.90;;;;;;;9.19;35.55;99126.56;4885714;29;20040;-74
2021/03/08 13:56:18;;;;;;;9.27;7.15;;;;;;;9.02;34.96;99124.91;4886888;29;20120;-74
2021/03/08 13:58:44;;;;;;;11.45;7.03;;;;;;;9.24;35.10;99122.22;4885210;29;20047;-75
2021/03/08 14:01:09;;;;;;;8.18;7.13;;;;;;;9.48;33.76;99113.41;4885450;29;20116;-74
2021/03/08 14:03:34;;;;;;;9.48;7.30;;;;;;;9.33;34.35;99118.66;4886549;29;20028;-74
2021/03/08 14:06:00;;;;;;;12.65;7.82;;;;;;;9.33;35.00;99114.38;4885468;29;20175;-74
2021/03/08 14:08:25;;;;;;;11.32;7.20;;;;;;;9.44;34.36;99119.47;4884229;29;20062;-74
2021/03/08 14:10:50;;;;;;;9.00;6.72;;;;;;;9.68;34.07;99106.31;4887154;29;20123;-74
2021/03/08 14:13:16;;;;;;;13.57;8.77;;;;;;;9.59;34.57;99109.00;4886010;29;20546;-74
2021/03/08 14:15:41;;;;;;;12.68;6.97;;;;;;;9.72;33.68;99113.19;4886225;29;20037;-75
2021/03/08 14:18:06;;;;;;;11.15;6.60;;;;;;;9.38;34.39;99112.63;4884467;29;20047;-75
2021/03/08 14:20:32;;;;;;;8.77;7.43;;;;;;;9.17;34.64;99112.75;4884744;29;20490;-75
2021/03/08 14:22:57;;;;;;;14.90;7.05;;;;;;;9.26;33.83;99112.69;4885686;29;20088;-74
2021/03/08 14:25:22;;;;;;;9.30;6.82;;;;;;;9.29;33.44;99112.69;4886561;29;20119;-74
2021/03/08 14:27:48;;;;;;;7.85;6.03;;;;;;;8.01;34.91;99114.13;4887324;29;20059;-75
2021/03/08 14:30:13;;;;;;;11.07;6.80;;;;;;;8.20;34.95;99102.03;4882940;29;20029;-74
2021/03/08 14:32:39;;;;;;;13.65;6.63;;;;;;;8.72;34.28;99094.09;4885358;29;20025;-74
2021/03/08 14:35:05;;;;;;;13.73;6.45;;;;;;;7.93;34.96;99100.41;4886113;29;20067;-74
2021/03/08 14:37:30;;;;;;;11.20;6.63;;;;;;;8.03;35.85;99096.06;4886061;29;20035;-74
2021/03/08 14:39:59;;;;;;;12.70;6.90;;;;;;;8.06;36.60;99090.88;4886049;29;20040;-74
2021/03/08 14:42:25;;;;;;;14.52;7.30;;;;;;;8.24;35.09;99093.41;4884437;29;20035;-74
2021/03/08 14:44:50;;;;;;;11.50;6.85;;;;;;;8.71;34.72;99076.88;4885352;29;20024;-74
2021/03/08 14:47:16;;;;;;;11.90;5.85;;;;;;;8.39;34.32;99080.47;4886081;29;20908;-74
2021/03/08 14:49:41;;;;;;;10.65;6.82;;;;;;;8.65;35.67;99082.06;4886431;29;20032;-75
2021/03/08 14:52:06;;;;;;;10.13;6.72;;;;;;;8.75;35.73;99076.88;4884384;29;20032;-74
2021/03/08 14:54:32;;;;;;;8.02;5.55;;;;;;;8.84;34.29;99078.50;4886281;29;20032;-74
2021/03/08 14:56:57;;;;;;;6.90;5.55;;;;;;;8.60;33.39;99074.34;4884988;29;20059;-74
2021/03/08 14:59:22;;;;;;;7.93;5.78;;;;;;;8.72;33.29;99076.88;4886111;29;20546;-74
2021/03/08 15:01:48;;;;;;;10.75;6.53;;;;;;;8.53;34.21;99082.16;4885919;29;20033;-74
2021/03/08 15:04:13;;;;;;;10.02;6.63;;;;;;;8.51;34.56;99074.41;4885165;29;20036;-74
2021/03/08 15:06:39;;;;;;;20.02;10.77;;;;;;;8.71;35.17;99066.56;4900590;29;20029;-74
2021/03/08 15:09:04;;;;;;;9.60;6.93;;;;;;;8.63;35.41;99068.31;4886193;29;20700;-74
2021/03/08 15:11:30;;;;;;;11.00;7.03;;;;;;;8.59;34.80;99067.47;4889965;29;20036;-74
2021/03/08 15:13:56;;;;;;;9.77;6.47;;;;;;;8.28;34.81;99074.47;4889888;29;20043;-74
2021/03/08 15:16:23;;;;;;;24.58;14.85;;;;;;;8.35;34.93;99068.41;4888655;29;20827;-74
2021/03/08 15:18:48;;;;;;;58.78;29.55;;;;;;;8.37;35.04;99069.31;4889448;29;20075;-74
2021/03/08 15:21:15;;;;;;;15.27;7.45;;;;;;;8.31;35.16;99066.69;4889775;29;20482;-75
2021/03/08 15:23:40;;;;;;;14.77;8.23;;;;;;;8.17;35.23;99064.19;4889342;29;20433;-73
2021/03/08 15:26:05;;;;;;;13.15;7.03;;;;;;;8.04;36.36;99071.97;4890517;29;20088;-75
2021/03/08 15:28:30;;;;;;;8.73;6.72;;;;;;;8.14;34.97;99073.66;4888183;29;20024;-75
2021/03/08 15:30:56;;;;;;;12.90;6.82;;;;;;;7.75;36.16;99070.34;4887223;29;20163;-74
2021/03/08 15:33:21;;;;;;;7.60;6.40;;;;;;;7.67;37.04;99072.91;4889611;29;20039;-74
2021/03/08 15:35:46;;;;;;;16.00;10.75;;;;;;;7.99;35.61;99065.09;4889471;29;20025;-74
2021/03/08 15:38:12;;;;;;;7.95;6.13;;;;;;;7.87;35.75;99067.72;4888477;29;20043;-74
2021/03/08 15:40:37;;;;;;;14.25;8.63;;;;;;;8.05;35.90;99063.38;4886341;29;20398;-74
2021/03/08 15:43:02;;;;;;;11.02;6.22;;;;;;;8.02;35.64;99063.38;4887374;29;20486;-74
2021/03/08 15:45:28;;;;;;;8.90;5.85;;;;;;;8.02;35.60;99063.38;4889187;29;20024;-74
2021/03/08 15:47:53;;;;;;;9.65;5.55;;;;;;;7.92;35.68;99065.97;4888599;29;20029;-74